sensor_id;sensor_type;location;lat;lon;timestamp;P1;durP1;ratioP1;P2;durP2;ratioP2
5898;SDS011;2975;50.956;6.962;2023-02-12T00:02:13;59.03;;;27.63;;
5898;SDS011;2975;50.956;6.962;2023-02-12T00:04:39;52.93;;;26.57;;
5898;SDS011;2975;50.956;6.962;2023-02-12T00:07:05;53.47;;;27.40;;
5898;SDS011;2975;50.956;6.962;2023-02-12T00:09:31;53.43;;;27.37;;
5898;SDS011;2975;50.956;6.962;2023-02-12T00:11:56;55.80;;;26.33;;
5898;SDS011;2975;50.956;6.962;2023-02-12T00:14:22;59.27;;;28.33;;
5898;SDS011;2975;50.956;6.962;2023-02-12T00:16:47;57.50;;;27.83;;
5898;SDS011;2975;50.956;6.962;2023-02-12T00:19:13;52.37;;;28.07;;
5898;SDS011;2975;50.956;6.962;2023-02-12T00:21:38;56.23;;;28.67;;
5898;SDS011;2975;50.956;6.962;2023-02-12T00:24:04;54.67;;;26.57;;
5898;SDS011;2975;50.956;6.962;2023-02-12T00:26:30;53.43;;;26.90;;
5898;SDS011;2975;50.956;6.962;2023-02-12T00:28:55;55.23;;;27.97;;
5898;SDS011;2975;50.956;6.962;2023-02-12T00:31:25;54.10;;;26.70;;
5898;SDS011;2975;50.956;6.962;2023-02-12T00:33:52;53.83;;;26.67;;
5898;SDS011;2975;50.956;6.962;2023-02-12T00:36:19;58.40;;;27.50;;
5898;SDS011;2975;50.956;6.962;2023-02-12T00:38:46;54.80;;;28.17;;
5898;SDS011;2975;50.956;6.962;2023-02-12T00:41:13;54.37;;;28.23;;
5898;SDS011;2975;50.956;6.962;2023-02-12T00:43:39;53.43;;;26.73;;
5898;SDS011;2975;50.956;6.962;2023-02-12T00:46:05;52.60;;;27.10;;
5898;SDS011;2975;50.956;6.962;2023-02-12T00:48:32;60.80;;;28.13;;
5898;SDS011;2975;50.956;6.962;2023-02-12T00:50:58;53.27;;;27.33;;
5898;SDS011;2975;50.956;6.962;2023-02-12T00:53:23;50.80;;;26.03;;
5898;SDS011;2975;50.956;6.962;2023-02-12T00:55:49;50.10;;;25.07;;
5898;SDS011;2975;50.956;6.962;2023-02-12T00:58:15;53.37;;;26.80;;
5898;SDS011;2975;50.956;6.962;2023-02-12T01:00:41;51.90;;;26.53;;
5898;SDS011;2975;50.956;6.962;2023-02-12T01:03:07;59.70;;;27.77;;
5898;SDS011;2975;50.956;6.962;2023-02-12T01:05:33;56.77;;;27.07;;
5898;SDS011;2975;50.956;6.962;2023-02-12T01:07:58;56.23;;;26.87;;
5898;SDS011;2975;50.956;6.962;2023-02-12T01:10:24;51.03;;;26.57;;
5898;SDS011;2975;50.956;6.962;2023-02-12T01:12:50;53.67;;;26.53;;
5898;SDS011;2975;50.956;6.962;2023-02-12T01:15:16;51.07;;;25.33;;
5898;SDS011;2975;50.956;6.962;2023-02-12T01:17:42;50.77;;;25.97;;
5898;SDS011;2975;50.956;6.962;2023-02-12T01:20:09;56.93;;;26.90;;
5898;SDS011;2975;50.956;6.962;2023-02-12T01:22:42;54.53;;;27.17;;
5898;SDS011;2975;50.956;6.962;2023-02-12T01:25:08;53.90;;;26.73;;
5898;SDS011;2975;50.956;6.962;2023-02-12T01:27:34;53.23;;;27.00;;
5898;SDS011;2975;50.956;6.962;2023-02-12T01:29:59;53.03;;;28.03;;
5898;SDS011;2975;50.956;6.962;2023-02-12T01:32:25;51.57;;;26.57;;
5898;SDS011;2975;50.956;6.962;2023-02-12T01:34:51;52.40;;;26.47;;
5898;SDS011;2975;50.956;6.962;2023-02-12T01:37:17;55.57;;;26.53;;
5898;SDS011;2975;50.956;6.962;2023-02-12T01:39:42;50.83;;;26.87;;
5898;SDS011;2975;50.956;6.962;2023-02-12T01:42:12;56.93;;;27.77;;
5898;SDS011;2975;50.956;6.962;2023-02-12T01:47:42;53.13;;;27.70;;
5898;SDS011;2975;50.956;6.962;2023-02-12T01:50:14;53.67;;;26.97;;
5898;SDS011;2975;50.956;6.962;2023-02-12T01:52:44;51.23;;;26.93;;
5898;SDS011;2975;50.956;6.962;2023-02-12T01:55:14;54.47;;;26.50;;
5898;SDS011;2975;50.956;6.962;2023-02-12T01:57:41;52.10;;;27.27;;
5898;SDS011;2975;50.956;6.962;2023-02-12T02:00:11;52.97;;;28.10;;
5898;SDS011;2975;50.956;6.962;2023-02-12T02:02:39;52.80;;;26.40;;
5898;SDS011;2975;50.956;6.962;2023-02-12T02:05:10;51.30;;;26.57;;
5898;SDS011;2975;50.956;6.962;2023-02-12T02:07:38;52.37;;;25.40;;
5898;SDS011;2975;50.956;6.962;2023-02-12T02:10:05;54.20;;;28.07;;
5898;SDS011;2975;50.956;6.962;2023-02-12T02:12:32;57.07;;;27.37;;
5898;SDS011;2975;50.956;6.962;2023-02-12T02:15:17;53.27;;;26.93;;
5898;SDS011;2975;50.956;6.962;2023-02-12T02:17:54;57.17;;;27.17;;
5898;SDS011;2975;50.956;6.962;2023-02-12T02:29:39;59.10;;;27.73;;
5898;SDS011;2975;50.956;6.962;2023-02-12T02:32:16;56.73;;;27.30;;
5898;SDS011;2975;50.956;6.962;2023-02-12T02:34:49;55.67;;;26.53;;
5898;SDS011;2975;50.956;6.962;2023-02-12T02:39:50;51.17;;;28.27;;
5898;SDS011;2975;50.956;6.962;2023-02-12T02:51:00;50.53;;;25.50;;
5898;SDS011;2975;50.956;6.962;2023-02-12T02:53:41;54.23;;;25.37;;
5898;SDS011;2975;50.956;6.962;2023-02-12T02:56:12;50.53;;;24.47;;
5898;SDS011;2975;50.956;6.962;2023-02-12T02:58:50;48.97;;;25.73;;
5898;SDS011;2975;50.956;6.962;2023-02-12T03:04:08;47.87;;;25.00;;
5898;SDS011;2975;50.956;6.962;2023-02-12T03:06:57;51.57;;;26.30;;
5898;SDS011;2975;50.956;6.962;2023-02-12T03:09:35;49.47;;;25.80;;
5898;SDS011;2975;50.956;6.962;2023-02-12T03:12:05;47.13;;;24.27;;
5898;SDS011;2975;50.956;6.962;2023-02-12T03:17:43;47.57;;;24.10;;
5898;SDS011;2975;50.956;6.962;2023-02-12T03:20:13;43.00;;;23.57;;
5898;SDS011;2975;50.956;6.962;2023-02-12T03:22:48;44.43;;;23.03;;
5898;SDS011;2975;50.956;6.962;2023-02-12T03:28:35;43.97;;;23.67;;
5898;SDS011;2975;50.956;6.962;2023-02-12T03:45:09;42.70;;;21.90;;
5898;SDS011;2975;50.956;6.962;2023-02-12T03:48:00;41.23;;;22.50;;
5898;SDS011;2975;50.956;6.962;2023-02-12T03:53:33;43.97;;;23.50;;
5898;SDS011;2975;50.956;6.962;2023-02-12T03:56:00;44.60;;;23.90;;
5898;SDS011;2975;50.956;6.962;2023-02-12T03:58:40;44.60;;;22.83;;
5898;SDS011;2975;50.956;6.962;2023-02-12T04:01:07;45.43;;;22.63;;
5898;SDS011;2975;50.956;6.962;2023-02-12T04:03:33;42.57;;;23.67;;
5898;SDS011;2975;50.956;6.962;2023-02-12T04:05:59;43.47;;;23.00;;
5898;SDS011;2975;50.956;6.962;2023-02-12T04:08:25;39.10;;;21.97;;
5898;SDS011;2975;50.956;6.962;2023-02-12T04:11:00;40.93;;;22.43;;
5898;SDS011;2975;50.956;6.962;2023-02-12T04:13:41;43.13;;;22.87;;
5898;SDS011;2975;50.956;6.962;2023-02-12T04:16:28;45.50;;;25.10;;
5898;SDS011;2975;50.956;6.962;2023-02-12T04:19:07;42.90;;;23.50;;
5898;SDS011;2975;50.956;6.962;2023-02-12T04:21:53;46.17;;;24.93;;
5898;SDS011;2975;50.956;6.962;2023-02-12T04:27:17;45.97;;;22.60;;
5898;SDS011;2975;50.956;6.962;2023-02-12T04:29:50;40.93;;;22.30;;
5898;SDS011;2975;50.956;6.962;2023-02-12T04:37:52;45.20;;;24.50;;
5898;SDS011;2975;50.956;6.962;2023-02-12T04:40:24;43.27;;;22.43;;
5898;SDS011;2975;50.956;6.962;2023-02-12T04:42:50;43.37;;;22.90;;
5898;SDS011;2975;50.956;6.962;2023-02-12T04:45:35;44.17;;;23.73;;
5898;SDS011;2975;50.956;6.962;2023-02-12T04:48:02;45.50;;;22.97;;
5898;SDS011;2975;50.956;6.962;2023-02-12T04:50:33;44.17;;;24.00;;
5898;SDS011;2975;50.956;6.962;2023-02-12T04:53:03;42.83;;;23.40;;
5898;SDS011;2975;50.956;6.962;2023-02-12T04:55:29;40.33;;;22.37;;
5898;SDS011;2975;50.956;6.962;2023-02-12T04:57:55;44.67;;;23.67;;
5898;SDS011;2975;50.956;6.962;2023-02-12T05:00:20;44.57;;;22.53;;
5898;SDS011;2975;50.956;6.962;2023-02-12T05:02:46;39.10;;;22.63;;
5898;SDS011;2975;50.956;6.962;2023-02-12T05:05:11;43.13;;;24.27;;
5898;SDS011;2975;50.956;6.962;2023-02-12T05:07:37;40.70;;;21.87;;
5898;SDS011;2975;50.956;6.962;2023-02-12T05:10:03;46.13;;;24.70;;
5898;SDS011;2975;50.956;6.962;2023-02-12T05:12:29;46.50;;;24.50;;
5898;SDS011;2975;50.956;6.962;2023-02-12T05:14:55;43.60;;;22.60;;
5898;SDS011;2975;50.956;6.962;2023-02-12T05:17:22;50.30;;;24.27;;
5898;SDS011;2975;50.956;6.962;2023-02-12T05:19:48;44.83;;;24.70;;
5898;SDS011;2975;50.956;6.962;2023-02-12T05:22:13;40.50;;;23.53;;
5898;SDS011;2975;50.956;6.962;2023-02-12T05:24:39;44.33;;;24.00;;
5898;SDS011;2975;50.956;6.962;2023-02-12T05:27:04;45.20;;;23.93;;
5898;SDS011;2975;50.956;6.962;2023-02-12T05:29:32;43.87;;;23.87;;
5898;SDS011;2975;50.956;6.962;2023-02-12T05:31:57;45.60;;;23.83;;
5898;SDS011;2975;50.956;6.962;2023-02-12T05:34:23;44.57;;;22.23;;
5898;SDS011;2975;50.956;6.962;2023-02-12T05:36:48;42.90;;;23.47;;
5898;SDS011;2975;50.956;6.962;2023-02-12T05:39:14;37.27;;;21.73;;
5898;SDS011;2975;50.956;6.962;2023-02-12T05:41:40;43.60;;;23.33;;
5898;SDS011;2975;50.956;6.962;2023-02-12T05:44:06;44.63;;;23.50;;
5898;SDS011;2975;50.956;6.962;2023-02-12T05:46:32;40.30;;;22.33;;
5898;SDS011;2975;50.956;6.962;2023-02-12T05:48:58;43.00;;;23.03;;
5898;SDS011;2975;50.956;6.962;2023-02-12T05:51:24;42.40;;;23.17;;
5898;SDS011;2975;50.956;6.962;2023-02-12T05:53:52;41.90;;;21.63;;
5898;SDS011;2975;50.956;6.962;2023-02-12T05:56:22;41.57;;;22.57;;
5898;SDS011;2975;50.956;6.962;2023-02-12T05:58:53;39.70;;;21.90;;
5898;SDS011;2975;50.956;6.962;2023-02-12T06:01:23;42.23;;;22.37;;
5898;SDS011;2975;50.956;6.962;2023-02-12T06:03:53;41.43;;;23.03;;
5898;SDS011;2975;50.956;6.962;2023-02-12T06:06:19;40.10;;;22.77;;
5898;SDS011;2975;50.956;6.962;2023-02-12T06:08:47;41.10;;;23.83;;
5898;SDS011;2975;50.956;6.962;2023-02-12T06:11:14;43.03;;;22.87;;
5898;SDS011;2975;50.956;6.962;2023-02-12T06:13:41;45.20;;;23.23;;
5898;SDS011;2975;50.956;6.962;2023-02-12T06:16:24;44.07;;;21.73;;
5898;SDS011;2975;50.956;6.962;2023-02-12T06:18:51;39.33;;;22.47;;
5898;SDS011;2975;50.956;6.962;2023-02-12T06:21:18;39.97;;;22.60;;
5898;SDS011;2975;50.956;6.962;2023-02-12T06:23:45;38.33;;;22.10;;
5898;SDS011;2975;50.956;6.962;2023-02-12T06:26:12;38.43;;;22.60;;
5898;SDS011;2975;50.956;6.962;2023-02-12T06:28:37;43.23;;;21.67;;
5898;SDS011;2975;50.956;6.962;2023-02-12T06:31:03;38.97;;;22.37;;
5898;SDS011;2975;50.956;6.962;2023-02-12T06:33:29;40.17;;;21.57;;
5898;SDS011;2975;50.956;6.962;2023-02-12T06:35:55;41.17;;;22.43;;
5898;SDS011;2975;50.956;6.962;2023-02-12T06:38:21;42.47;;;22.13;;
5898;SDS011;2975;50.956;6.962;2023-02-12T06:40:46;39.53;;;21.53;;
5898;SDS011;2975;50.956;6.962;2023-02-12T06:43:12;42.07;;;23.53;;
5898;SDS011;2975;50.956;6.962;2023-02-12T06:45:38;40.53;;;23.13;;
5898;SDS011;2975;50.956;6.962;2023-02-12T06:48:03;41.80;;;22.40;;
5898;SDS011;2975;50.956;6.962;2023-02-12T06:50:29;37.27;;;22.23;;
5898;SDS011;2975;50.956;6.962;2023-02-12T06:52:56;40.17;;;22.23;;
5898;SDS011;2975;50.956;6.962;2023-02-12T06:55:23;37.23;;;22.73;;
5898;SDS011;2975;50.956;6.962;2023-02-12T06:57:48;42.00;;;22.83;;
5898;SDS011;2975;50.956;6.962;2023-02-12T07:00:14;35.73;;;21.00;;
5898;SDS011;2975;50.956;6.962;2023-02-12T07:02:40;39.67;;;21.93;;
5898;SDS011;2975;50.956;6.962;2023-02-12T07:05:05;38.03;;;21.87;;
5898;SDS011;2975;50.956;6.962;2023-02-12T07:07:31;40.03;;;22.43;;
5898;SDS011;2975;50.956;6.962;2023-02-12T07:09:57;41.97;;;23.07;;
5898;SDS011;2975;50.956;6.962;2023-02-12T07:12:23;37.93;;;22.87;;
5898;SDS011;2975;50.956;6.962;2023-02-12T07:14:49;37.83;;;21.90;;
5898;SDS011;2975;50.956;6.962;2023-02-12T07:17:14;39.50;;;22.80;;
5898;SDS011;2975;50.956;6.962;2023-02-12T07:19:40;38.80;;;22.07;;
5898;SDS011;2975;50.956;6.962;2023-02-12T07:22:05;37.90;;;21.40;;
5898;SDS011;2975;50.956;6.962;2023-02-12T07:24:31;36.63;;;22.00;;
5898;SDS011;2975;50.956;6.962;2023-02-12T07:26:56;39.30;;;22.83;;
5898;SDS011;2975;50.956;6.962;2023-02-12T07:29:22;37.80;;;21.40;;
5898;SDS011;2975;50.956;6.962;2023-02-12T07:31:47;38.83;;;20.03;;
5898;SDS011;2975;50.956;6.962;2023-02-12T07:34:13;37.47;;;20.77;;
5898;SDS011;2975;50.956;6.962;2023-02-12T07:36:39;35.03;;;20.67;;
5898;SDS011;2975;50.956;6.962;2023-02-12T07:39:04;37.90;;;20.27;;
5898;SDS011;2975;50.956;6.962;2023-02-12T07:41:31;35.03;;;20.57;;
5898;SDS011;2975;50.956;6.962;2023-02-12T07:43:59;34.60;;;20.67;;
5898;SDS011;2975;50.956;6.962;2023-02-12T07:46:35;38.63;;;20.93;;
5898;SDS011;2975;50.956;6.962;2023-02-12T07:49:03;35.40;;;19.07;;
5898;SDS011;2975;50.956;6.962;2023-02-12T07:51:31;39.10;;;21.93;;
5898;SDS011;2975;50.956;6.962;2023-02-12T07:53:58;41.13;;;21.77;;
5898;SDS011;2975;50.956;6.962;2023-02-12T07:56:26;36.73;;;21.13;;
5898;SDS011;2975;50.956;6.962;2023-02-12T07:58:57;37.10;;;20.47;;
5898;SDS011;2975;50.956;6.962;2023-02-12T08:03:52;36.17;;;20.00;;
5898;SDS011;2975;50.956;6.962;2023-02-12T08:06:22;35.20;;;21.00;;
5898;SDS011;2975;50.956;6.962;2023-02-12T08:08:50;33.50;;;19.83;;
5898;SDS011;2975;50.956;6.962;2023-02-12T08:11:20;38.80;;;20.67;;
5898;SDS011;2975;50.956;6.962;2023-02-12T08:13:47;35.63;;;20.37;;
5898;SDS011;2975;50.956;6.962;2023-02-12T08:16:14;34.87;;;19.93;;
5898;SDS011;2975;50.956;6.962;2023-02-12T08:18:41;36.00;;;21.57;;
5898;SDS011;2975;50.956;6.962;2023-02-12T08:21:07;36.00;;;20.63;;
5898;SDS011;2975;50.956;6.962;2023-02-12T08:23:38;34.70;;;20.47;;
5898;SDS011;2975;50.956;6.962;2023-02-12T08:26:09;37.40;;;20.57;;
5898;SDS011;2975;50.956;6.962;2023-02-12T08:28:35;36.83;;;20.50;;
5898;SDS011;2975;50.956;6.962;2023-02-12T08:31:04;37.20;;;21.57;;
5898;SDS011;2975;50.956;6.962;2023-02-12T08:33:32;39.63;;;21.77;;
5898;SDS011;2975;50.956;6.962;2023-02-12T08:36:02;35.27;;;19.60;;
5898;SDS011;2975;50.956;6.962;2023-02-12T08:38:36;33.90;;;19.83;;
5898;SDS011;2975;50.956;6.962;2023-02-12T08:41:03;41.67;;;20.90;;
5898;SDS011;2975;50.956;6.962;2023-02-12T08:43:31;36.03;;;21.60;;
5898;SDS011;2975;50.956;6.962;2023-02-12T08:46:07;38.67;;;21.53;;
5898;SDS011;2975;50.956;6.962;2023-02-12T08:48:37;38.43;;;21.17;;
5898;SDS011;2975;50.956;6.962;2023-02-12T08:51:08;39.47;;;20.93;;
5898;SDS011;2975;50.956;6.962;2023-02-12T08:53:39;38.87;;;22.83;;
5898;SDS011;2975;50.956;6.962;2023-02-12T08:56:06;35.93;;;21.13;;
5898;SDS011;2975;50.956;6.962;2023-02-12T08:58:33;41.37;;;22.60;;
5898;SDS011;2975;50.956;6.962;2023-02-12T09:00:59;38.40;;;22.30;;
5898;SDS011;2975;50.956;6.962;2023-02-12T09:03:25;44.63;;;21.63;;
5898;SDS011;2975;50.956;6.962;2023-02-12T09:05:50;42.27;;;23.83;;
5898;SDS011;2975;50.956;6.962;2023-02-12T09:08:16;41.90;;;23.33;;
5898;SDS011;2975;50.956;6.962;2023-02-12T09:10:42;39.07;;;21.63;;
5898;SDS011;2975;50.956;6.962;2023-02-12T09:13:09;37.93;;;21.37;;
5898;SDS011;2975;50.956;6.962;2023-02-12T09:15:40;42.30;;;22.90;;
5898;SDS011;2975;50.956;6.962;2023-02-12T09:18:07;42.10;;;22.43;;
5898;SDS011;2975;50.956;6.962;2023-02-12T09:20:35;45.17;;;22.70;;
5898;SDS011;2975;50.956;6.962;2023-02-12T09:23:03;43.63;;;22.67;;
5898;SDS011;2975;50.956;6.962;2023-02-12T09:25:28;36.90;;;21.67;;
5898;SDS011;2975;50.956;6.962;2023-02-12T09:27:54;41.07;;;23.60;;
5898;SDS011;2975;50.956;6.962;2023-02-12T09:30:20;43.60;;;23.73;;
5898;SDS011;2975;50.956;6.962;2023-02-12T09:32:46;44.13;;;23.47;;
5898;SDS011;2975;50.956;6.962;2023-02-12T09:35:12;45.37;;;23.70;;
5898;SDS011;2975;50.956;6.962;2023-02-12T09:37:38;43.00;;;23.20;;
5898;SDS011;2975;50.956;6.962;2023-02-12T09:40:05;45.70;;;23.80;;
5898;SDS011;2975;50.956;6.962;2023-02-12T09:42:39;46.03;;;23.90;;
5898;SDS011;2975;50.956;6.962;2023-02-12T09:45:15;45.93;;;23.90;;
5898;SDS011;2975;50.956;6.962;2023-02-12T09:48:02;43.10;;;23.07;;
5898;SDS011;2975;50.956;6.962;2023-02-12T09:50:51;43.17;;;24.70;;
5898;SDS011;2975;50.956;6.962;2023-02-12T09:53:20;46.10;;;23.67;;
5898;SDS011;2975;50.956;6.962;2023-02-12T09:55:49;40.53;;;23.10;;
5898;SDS011;2975;50.956;6.962;2023-02-12T09:58:34;46.70;;;25.47;;
5898;SDS011;2975;50.956;6.962;2023-02-12T10:01:10;47.37;;;26.13;;
5898;SDS011;2975;50.956;6.962;2023-02-12T10:03:38;44.97;;;24.53;;
5898;SDS011;2975;50.956;6.962;2023-02-12T10:06:04;45.13;;;24.83;;
5898;SDS011;2975;50.956;6.962;2023-02-12T10:14:27;47.40;;;26.17;;
5898;SDS011;2975;50.956;6.962;2023-02-12T10:22:46;46.73;;;26.60;;
5898;SDS011;2975;50.956;6.962;2023-02-12T10:25:25;48.17;;;26.43;;
5898;SDS011;2975;50.956;6.962;2023-02-12T10:28:07;53.70;;;26.43;;
5898;SDS011;2975;50.956;6.962;2023-02-12T10:33:18;48.77;;;25.07;;
5898;SDS011;2975;50.956;6.962;2023-02-12T10:35:53;46.43;;;24.67;;
5898;SDS011;2975;50.956;6.962;2023-02-12T10:38:36;44.80;;;24.77;;
5898;SDS011;2975;50.956;6.962;2023-02-12T10:41:06;45.57;;;24.63;;
5898;SDS011;2975;50.956;6.962;2023-02-12T10:43:34;47.67;;;24.63;;
5898;SDS011;2975;50.956;6.962;2023-02-12T10:46:00;52.73;;;25.17;;
5898;SDS011;2975;50.956;6.962;2023-02-12T10:48:29;42.93;;;24.03;;
5898;SDS011;2975;50.956;6.962;2023-02-12T10:58:41;48.60;;;24.60;;
5898;SDS011;2975;50.956;6.962;2023-02-12T11:01:19;44.60;;;24.23;;
5898;SDS011;2975;50.956;6.962;2023-02-12T11:03:46;47.93;;;25.20;;
5898;SDS011;2975;50.956;6.962;2023-02-12T11:06:31;44.43;;;24.10;;
5898;SDS011;2975;50.956;6.962;2023-02-12T11:08:57;51.17;;;25.20;;
5898;SDS011;2975;50.956;6.962;2023-02-12T11:11:24;42.10;;;23.83;;
5898;SDS011;2975;50.956;6.962;2023-02-12T11:14:05;39.77;;;23.10;;
5898;SDS011;2975;50.956;6.962;2023-02-12T11:19:22;42.47;;;22.33;;
5898;SDS011;2975;50.956;6.962;2023-02-12T11:22:03;38.13;;;22.10;;
5898;SDS011;2975;50.956;6.962;2023-02-12T11:24:34;41.83;;;22.17;;
5898;SDS011;2975;50.956;6.962;2023-02-12T11:27:11;38.03;;;22.37;;
5898;SDS011;2975;50.956;6.962;2023-02-12T11:29:40;37.47;;;20.63;;
5898;SDS011;2975;50.956;6.962;2023-02-12T11:32:10;40.53;;;21.03;;
5898;SDS011;2975;50.956;6.962;2023-02-12T11:34:41;38.03;;;22.17;;
5898;SDS011;2975;50.956;6.962;2023-02-12T11:37:17;42.57;;;21.80;;
5898;SDS011;2975;50.956;6.962;2023-02-12T11:39:47;40.93;;;21.37;;
5898;SDS011;2975;50.956;6.962;2023-02-12T11:42:15;39.13;;;19.93;;
5898;SDS011;2975;50.956;6.962;2023-02-12T11:44:49;32.87;;;19.03;;
5898;SDS011;2975;50.956;6.962;2023-02-12T11:47:16;32.13;;;18.10;;
5898;SDS011;2975;50.956;6.962;2023-02-12T11:49:49;30.87;;;17.57;;
5898;SDS011;2975;50.956;6.962;2023-02-12T11:52:20;33.17;;;19.13;;
5898;SDS011;2975;50.956;6.962;2023-02-12T11:54:51;36.67;;;19.73;;
5898;SDS011;2975;50.956;6.962;2023-02-12T12:00:35;33.13;;;18.37;;
5898;SDS011;2975;50.956;6.962;2023-02-12T12:03:11;33.43;;;19.27;;
5898;SDS011;2975;50.956;6.962;2023-02-12T12:05:52;32.97;;;18.87;;
5898;SDS011;2975;50.956;6.962;2023-02-12T12:08:28;32.40;;;18.13;;
5898;SDS011;2975;50.956;6.962;2023-02-12T12:11:16;34.70;;;19.27;;
5898;SDS011;2975;50.956;6.962;2023-02-12T12:20:02;26.03;;;15.60;;
5898;SDS011;2975;50.956;6.962;2023-02-12T12:25:28;27.13;;;15.23;;
5898;SDS011;2975;50.956;6.962;2023-02-12T12:33:54;22.50;;;12.77;;
5898;SDS011;2975;50.956;6.962;2023-02-12T12:36:30;21.33;;;12.80;;
5898;SDS011;2975;50.956;6.962;2023-02-12T12:47:14;25.80;;;12.90;;
5898;SDS011;2975;50.956;6.962;2023-02-12T12:49:59;22.80;;;13.30;;
5898;SDS011;2975;50.956;6.962;2023-02-12T12:58:31;22.07;;;12.87;;
5898;SDS011;2975;50.956;6.962;2023-02-12T13:01:16;19.60;;;12.33;;
5898;SDS011;2975;50.956;6.962;2023-02-12T13:06:58;19.20;;;11.93;;
5898;SDS011;2975;50.956;6.962;2023-02-12T13:09:47;19.93;;;11.93;;
5898;SDS011;2975;50.956;6.962;2023-02-12T13:15:28;22.70;;;11.17;;
5898;SDS011;2975;50.956;6.962;2023-02-12T13:23:53;20.63;;;11.60;;
5898;SDS011;2975;50.956;6.962;2023-02-12T13:29:29;19.43;;;11.60;;
5898;SDS011;2975;50.956;6.962;2023-02-12T13:34:30;17.03;;;11.03;;
5898;SDS011;2975;50.956;6.962;2023-02-12T13:37:01;20.43;;;11.40;;
5898;SDS011;2975;50.956;6.962;2023-02-12T13:39:31;17.33;;;10.83;;
5898;SDS011;2975;50.956;6.962;2023-02-12T13:50:02;21.00;;;11.13;;
5898;SDS011;2975;50.956;6.962;2023-02-12T13:53:06;25.20;;;12.00;;
5898;SDS011;2975;50.956;6.962;2023-02-12T13:55:40;20.23;;;12.57;;
5898;SDS011;2975;50.956;6.962;2023-02-12T14:01:11;18.63;;;11.77;;
5898;SDS011;2975;50.956;6.962;2023-02-12T14:03:38;19.77;;;12.13;;
5898;SDS011;2975;50.956;6.962;2023-02-12T14:06:14;18.90;;;11.67;;
5898;SDS011;2975;50.956;6.962;2023-02-12T14:08:45;21.97;;;13.10;;
5898;SDS011;2975;50.956;6.962;2023-02-12T14:11:19;21.20;;;13.53;;
5898;SDS011;2975;50.956;6.962;2023-02-12T14:13:52;20.57;;;11.70;;
5898;SDS011;2975;50.956;6.962;2023-02-12T14:21:59;21.33;;;12.77;;
5898;SDS011;2975;50.956;6.962;2023-02-12T14:24:59;22.60;;;14.07;;
5898;SDS011;2975;50.956;6.962;2023-02-12T14:27:29;21.03;;;12.23;;
5898;SDS011;2975;50.956;6.962;2023-02-12T14:42:59;22.10;;;12.93;;
5898;SDS011;2975;50.956;6.962;2023-02-12T14:45:34;22.40;;;13.50;;
5898;SDS011;2975;50.956;6.962;2023-02-12T14:48:00;21.93;;;12.37;;
5898;SDS011;2975;50.956;6.962;2023-02-12T14:50:28;23.67;;;13.13;;
5898;SDS011;2975;50.956;6.962;2023-02-12T14:55:44;21.70;;;13.13;;
5898;SDS011;2975;50.956;6.962;2023-02-12T14:58:18;20.07;;;12.97;;
5898;SDS011;2975;50.956;6.962;2023-02-12T15:00:47;20.30;;;11.80;;
5898;SDS011;2975;50.956;6.962;2023-02-12T15:08:28;22.80;;;12.20;;
5898;SDS011;2975;50.956;6.962;2023-02-12T15:19:30;22.67;;;12.13;;
5898;SDS011;2975;50.956;6.962;2023-02-12T15:22:10;20.30;;;11.97;;
5898;SDS011;2975;50.956;6.962;2023-02-12T15:24:45;17.87;;;11.47;;
5898;SDS011;2975;50.956;6.962;2023-02-12T15:27:12;21.17;;;11.90;;
5898;SDS011;2975;50.956;6.962;2023-02-12T15:29:44;29.70;;;20.50;;
5898;SDS011;2975;50.956;6.962;2023-02-12T15:32:33;16.67;;;11.30;;
5898;SDS011;2975;50.956;6.962;2023-02-12T15:35:00;16.63;;;9.53;;
5898;SDS011;2975;50.956;6.962;2023-02-12T15:37:27;15.80;;;9.77;;
5898;SDS011;2975;50.956;6.962;2023-02-12T15:39:54;18.17;;;10.53;;
5898;SDS011;2975;50.956;6.962;2023-02-12T15:42:36;17.93;;;10.33;;
5898;SDS011;2975;50.956;6.962;2023-02-12T15:47:44;17.27;;;11.27;;
5898;SDS011;2975;50.956;6.962;2023-02-12T15:50:19;16.40;;;8.93;;
5898;SDS011;2975;50.956;6.962;2023-02-12T15:52:46;17.43;;;9.73;;
5898;SDS011;2975;50.956;6.962;2023-02-12T15:55:21;12.13;;;7.57;;
5898;SDS011;2975;50.956;6.962;2023-02-12T15:57:50;13.43;;;8.83;;
5898;SDS011;2975;50.956;6.962;2023-02-12T16:03:18;14.33;;;7.77;;
5898;SDS011;2975;50.956;6.962;2023-02-12T16:05:48;11.43;;;7.23;;
5898;SDS011;2975;50.956;6.962;2023-02-12T16:08:16;14.67;;;7.97;;
5898;SDS011;2975;50.956;6.962;2023-02-12T16:10:46;10.63;;;6.43;;
5898;SDS011;2975;50.956;6.962;2023-02-12T16:13:17;15.77;;;7.17;;
5898;SDS011;2975;50.956;6.962;2023-02-12T16:16:01;15.00;;;7.63;;
5898;SDS011;2975;50.956;6.962;2023-02-12T16:18:32;13.30;;;8.63;;
5898;SDS011;2975;50.956;6.962;2023-02-12T16:21:01;14.57;;;9.87;;
5898;SDS011;2975;50.956;6.962;2023-02-12T16:23:34;16.10;;;9.87;;
5898;SDS011;2975;50.956;6.962;2023-02-12T16:26:00;15.47;;;9.90;;
5898;SDS011;2975;50.956;6.962;2023-02-12T16:28:27;14.07;;;8.57;;
5898;SDS011;2975;50.956;6.962;2023-02-12T16:31:07;17.77;;;10.30;;
5898;SDS011;2975;50.956;6.962;2023-02-12T16:33:40;17.00;;;10.70;;
5898;SDS011;2975;50.956;6.962;2023-02-12T16:38:47;20.60;;;11.73;;
5898;SDS011;2975;50.956;6.962;2023-02-12T16:46:27;18.90;;;11.67;;
5898;SDS011;2975;50.956;6.962;2023-02-12T16:48:55;17.90;;;12.00;;
5898;SDS011;2975;50.956;6.962;2023-02-12T16:53:54;23.23;;;13.80;;
5898;SDS011;2975;50.956;6.962;2023-02-12T16:56:22;26.83;;;13.17;;
5898;SDS011;2975;50.956;6.962;2023-02-12T16:58:50;22.67;;;13.20;;
5898;SDS011;2975;50.956;6.962;2023-02-12T17:01:21;19.00;;;11.70;;
5898;SDS011;2975;50.956;6.962;2023-02-12T17:03:58;24.33;;;12.00;;
5898;SDS011;2975;50.956;6.962;2023-02-12T17:06:28;20.03;;;10.60;;
5898;SDS011;2975;50.956;6.962;2023-02-12T17:08:55;21.77;;;11.03;;
5898;SDS011;2975;50.956;6.962;2023-02-12T17:11:21;18.70;;;11.17;;
5898;SDS011;2975;50.956;6.962;2023-02-12T17:13:48;22.60;;;11.70;;
5898;SDS011;2975;50.956;6.962;2023-02-12T17:16:15;17.27;;;11.17;;
5898;SDS011;2975;50.956;6.962;2023-02-12T17:18:41;18.40;;;11.07;;
5898;SDS011;2975;50.956;6.962;2023-02-12T17:23:45;23.47;;;11.67;;
5898;SDS011;2975;50.956;6.962;2023-02-12T17:26:10;22.53;;;11.37;;
5898;SDS011;2975;50.956;6.962;2023-02-12T17:28:36;20.50;;;11.63;;
5898;SDS011;2975;50.956;6.962;2023-02-12T17:31:03;17.83;;;10.90;;
5898;SDS011;2975;50.956;6.962;2023-02-12T17:33:30;22.63;;;11.93;;
5898;SDS011;2975;50.956;6.962;2023-02-12T17:35:57;19.10;;;11.57;;
5898;SDS011;2975;50.956;6.962;2023-02-12T17:38:23;20.60;;;11.10;;
5898;SDS011;2975;50.956;6.962;2023-02-12T17:40:48;19.90;;;11.20;;
5898;SDS011;2975;50.956;6.962;2023-02-12T17:43:14;18.90;;;10.80;;
5898;SDS011;2975;50.956;6.962;2023-02-12T17:45:40;19.27;;;10.07;;
5898;SDS011;2975;50.956;6.962;2023-02-12T17:48:07;18.30;;;11.27;;
5898;SDS011;2975;50.956;6.962;2023-02-12T17:50:33;16.50;;;9.80;;
5898;SDS011;2975;50.956;6.962;2023-02-12T17:52:59;17.97;;;10.53;;
5898;SDS011;2975;50.956;6.962;2023-02-12T17:55:25;16.33;;;9.40;;
5898;SDS011;2975;50.956;6.962;2023-02-12T17:57:51;18.47;;;10.43;;
5898;SDS011;2975;50.956;6.962;2023-02-12T18:00:17;19.23;;;11.80;;
5898;SDS011;2975;50.956;6.962;2023-02-12T18:02:44;19.50;;;11.97;;
5898;SDS011;2975;50.956;6.962;2023-02-12T18:05:09;18.20;;;11.70;;
5898;SDS011;2975;50.956;6.962;2023-02-12T18:07:35;22.43;;;12.00;;
5898;SDS011;2975;50.956;6.962;2023-02-12T18:10:01;21.80;;;11.77;;
5898;SDS011;2975;50.956;6.962;2023-02-12T18:12:26;22.33;;;12.60;;
5898;SDS011;2975;50.956;6.962;2023-02-12T18:14:58;20.23;;;12.07;;
5898;SDS011;2975;50.956;6.962;2023-02-12T18:17:25;21.73;;;11.47;;
5898;SDS011;2975;50.956;6.962;2023-02-12T18:19:52;19.57;;;12.20;;
5898;SDS011;2975;50.956;6.962;2023-02-12T18:22:18;18.53;;;11.00;;
5898;SDS011;2975;50.956;6.962;2023-02-12T18:24:44;17.83;;;10.53;;